Time;durP1;ratioP1;P1;durP2;ratioP2;P2;SDS_P1;SDS_P2;PMS_P1;PMS_P2;Temp;Humidity;BMP_temperature;BMP_pressure;BME280_temperature;BME280_humidity;BME280_pressure;Samples;Min_cycle;Max_cycle;Signal;HPM_P1;HPM_P2
2024/01/19 00:01:58;;;;;;;77.60;40.30;;;;;;;-1.77;84.26;99350.94;112857;241;38813;-70
2024/01/19 00:04:32;;;;;;;69.50;39.10;;;;;;;-1.81;84.19;99359.34;112896;241;39486;-71
2024/01/19 00:07:05;;;;;;;68.40;39.00;;;;;;;-1.84;84.37;99364.98;112851;241;38900;-70
2024/01/19 00:09:39;;;;;;;66.40;38.50;;;;;;;-1.85;84.27;99371.32;112867;241;38338;-71
2024/01/19 00:12:13;;;;;;;69.10;39.50;;;;;;;-1.88;84.08;99381.77;112851;241;38701;-69
2024/01/19 00:14:46;;;;;;;69.70;39.70;;;;;;;-1.92;84.26;99386.05;112858;241;40134;-69
2024/01/19 00:17:20;;;;;;;73.70;40.20;;;;;;;-1.95;84.28;99391.36;112876;241;39893;-69
2024/01/19 00:19:54;;;;;;;69.50;41.60;;;;;;;-1.98;84.42;99391.02;112861;241;38758;-69
2024/01/19 00:22:28;;;;;;;66.10;37.40;;;;;;;-2.00;84.58;99401.29;112883;241;38795;-70
2024/01/19 00:25:02;;;;;;;68.40;38.40;;;;;;;-2.01;84.54;99411.05;112851;241;38284;-70
2024/01/19 00:27:36;;;;;;;65.00;35.70;;;;;;;-1.96;84.97;99411.01;112865;241;38427;-69
2024/01/19 00:30:12;;;;;;;68.80;39.20;;;;;;;-1.92;85.32;99420.58;112879;241;39715;-69
2024/01/19 00:32:45;;;;;;;67.10;37.10;;;;;;;-1.84;85.54;99428.23;112867;241;39326;-70
2024/01/19 00:35:19;;;;;;;64.00;37.40;;;;;;;-1.81;85.44;99432.69;112895;241;38344;-70
2024/01/19 00:37:53;;;;;;;61.30;36.40;;;;;;;-1.81;85.44;99436.62;112757;241;175321;-69
2024/01/19 00:40:26;;;;;;;54.30;31.80;;;;;;;-1.85;85.42;99438.16;112849;241;38669;-69
2024/01/19 00:43:00;;;;;;;55.40;30.10;;;;;;;-1.91;85.21;99442.97;112893;241;38405;-70
2024/01/19 00:45:34;;;;;;;48.50;28.10;;;;;;;-1.93;85.22;99448.26;112876;241;38690;-71
2024/01/19 00:48:08;;;;;;;47.70;29.30;;;;;;;-1.92;85.30;99456.98;112893;241;38625;-69
2024/01/19 00:50:42;;;;;;;51.00;30.00;;;;;;;-1.89;85.31;99463.80;112867;241;38515;-69
2024/01/19 00:53:16;;;;;;;56.20;31.30;;;;;;;-1.88;85.43;99466.02;112846;241;38634;-70
2024/01/19 00:55:51;;;;;;;51.30;30.20;;;;;;;-1.87;85.43;99472.36;112852;241;38902;-70
2024/01/19 00:58:25;;;;;;;55.00;30.10;;;;;;;-1.91;85.47;99481.25;112873;241;38582;-69
2024/01/19 01:00:58;;;;;;;56.00;31.20;;;;;;;-1.92;85.38;99491.50;112873;241;38542;-69
2024/01/19 01:03:32;;;;;;;48.90;27.50;;;;;;;-1.93;85.50;99498.85;112874;241;40201;-69
2024/01/19 01:06:06;;;;;;;54.00;29.90;;;;;;;-1.89;85.65;99498.85;112869;241;38872;-69
2024/01/19 01:08:40;;;;;;;50.50;30.30;;;;;;;-1.85;85.77;99501.74;112849;241;38170;-71
2024/01/19 01:11:38;;;;;;;51.70;30.20;;;;;;;-1.82;85.78;99500.71;112899;241;39995;-71
2024/01/19 01:14:53;;;;;;;51.70;30.00;;;;;;;-1.81;85.64;99503.46;112865;241;38885;-69
2024/01/19 01:17:27;;;;;;;51.00;28.30;;;;;;;-1.84;85.41;99512.86;112896;241;39486;-69
2024/01/19 01:20:01;;;;;;;47.50;27.50;;;;;;;-1.85;85.40;99518.16;112850;241;38730;-69
2024/01/19 01:22:34;;;;;;;48.30;26.20;;;;;;;-1.82;85.46;99522.61;112868;241;39143;-69
2024/01/19 01:25:09;;;;;;;42.90;24.70;;;;;;;-1.78;85.48;99531.81;112875;241;38351;-69
2024/01/19 01:27:43;;;;;;;46.80;26.20;;;;;;;-1.79;85.17;99531.14;112865;241;38310;-69
2024/01/19 01:30:17;;;;;;;49.40;28.20;;;;;;;-1.81;85.17;99533.36;112893;241;38393;-69
2024/01/19 01:32:51;;;;;;;45.90;28.10;;;;;;;-1.82;85.31;99532.86;112872;241;38391;-69
2024/01/19 01:35:25;;;;;;;43.90;24.60;;;;;;;-1.82;85.41;99535.26;112903;241;38348;-69
2024/01/19 01:37:59;;;;;;;44.80;24.30;;;;;;;-1.83;85.04;99538.84;112896;241;38690;-70
2024/01/19 01:40:32;;;;;;;41.30;23.40;;;;;;;-1.84;84.97;99538.66;112869;241;39797;-70
2024/01/19 01:43:07;;;;;;;39.40;24.60;;;;;;;-1.83;84.96;99550.13;112853;241;38572;-69
2024/01/19 01:45:40;;;;;;;35.80;21.00;;;;;;;-1.86;84.54;99553.89;112894;241;38562;-69
2024/01/19 01:48:14;;;;;;;33.20;19.80;;;;;;;-1.88;84.77;99557.98;112862;241;40038;-69
2024/01/19 01:50:48;;;;;;;36.20;20.30;;;;;;;-1.85;85.09;99561.75;112846;241;40000;-69
2024/01/19 01:53:21;;;;;;;35.90;20.10;;;;;;;-1.85;84.76;99572.00;112901;241;38978;-69
2024/01/19 01:55:56;;;;;;;32.50;18.80;;;;;;;-1.90;84.45;99579.70;112882;241;39976;-69
2024/01/19 01:58:29;;;;;;;35.30;19.60;;;;;;;-1.93;84.27;99581.41;112864;241;39745;-70
2024/01/19 02:01:03;;;;;;;32.10;19.70;;;;;;;-1.93;84.33;99587.05;112888;241;39635;-70
2024/01/19 02:03:37;;;;;;;35.80;20.90;;;;;;;-1.93;84.43;99593.71;112866;241;38587;-69
2024/01/19 02:06:11;;;;;;;35.70;21.70;;;;;;;-1.95;84.30;99600.90;112769;241;39304;-69
2024/01/19 02:08:45;;;;;;;37.50;23.20;;;;;;;-1.97;84.27;99603.81;112890;241;38943;-70
2024/01/19 02:11:19;;;;;;;39.30;22.80;;;;;;;-1.98;84.22;99607.23;112837;241;38463;-71
2024/01/19 02:13:52;;;;;;;41.50;23.20;;;;;;;-2.08;83.76;99607.73;112848;241;38453;-70
2024/01/19 02:16:27;;;;;;;35.30;21.90;;;;;;;-2.14;83.82;99607.04;112912;241;38301;-71
2024/01/19 02:19:01;;;;;;;35.00;20.70;;;;;;;-2.14;84.27;99603.29;112883;241;38804;-70
2024/01/19 02:21:35;;;;;;;35.60;20.70;;;;;;;-2.17;83.65;99609.09;112886;241;38320;-69
2024/01/19 02:24:13;;;;;;;38.70;22.00;;;;;;;-2.17;83.84;99617.13;112880;241;38659;-69
2024/01/19 02:26:46;;;;;;;40.20;22.60;;;;;;;-2.17;83.84;99618.83;112849;241;39987;-70
2024/01/19 02:29:20;;;;;;;37.00;21.80;;;;;;;-2.16;84.26;99624.80;112835;241;38391;-70
2024/01/19 02:31:54;;;;;;;40.10;23.30;;;;;;;-2.15;84.30;99626.52;112909;241;38328;-71
2024/01/19 02:34:28;;;;;;;39.30;22.70;;;;;;;-2.15;84.53;99629.09;112861;241;38334;-71
2024/01/19 02:37:01;;;;;;;35.50;20.40;;;;;;;-2.15;84.18;99630.45;112847;241;38360;-69
2024/01/19 02:39:35;;;;;;;35.10;20.00;;;;;;;-2.19;83.70;99639.16;112908;241;39735;-69
2024/01/19 02:42:09;;;;;;;33.70;21.40;;;;;;;-2.21;83.78;99641.89;112858;241;38792;-69
2024/01/19 02:44:43;;;;;;;37.00;21.70;;;;;;;-2.18;83.95;99651.29;112900;241;38319;-69
2024/01/19 02:47:17;;;;;;;35.00;22.00;;;;;;;-2.18;83.79;99656.23;112902;241;38242;-70
2024/01/19 02:49:52;;;;;;;39.00;23.10;;;;;;;-2.22;83.60;99661.88;112900;241;39752;-70
2024/01/19 02:52:26;;;;;;;38.30;23.50;;;;;;;-2.27;83.46;99668.19;112845;241;38230;-70
2024/01/19 02:55:00;;;;;;;38.60;22.50;;;;;;;-2.34;83.54;99670.73;112886;241;38210;-71
2024/01/19 02:57:34;;;;;;;37.80;20.60;;;;;;;-2.38;83.46;99673.61;112866;241;38378;-70
2024/01/19 03:00:11;;;;;;;37.30;19.40;;;;;;;-2.40;83.79;99677.38;112770;241;172729;-71
2024/01/19 03:02:45;;;;;;;37.60;21.20;;;;;;;-2.35;84.13;99679.27;112856;241;39890;-70
2024/01/19 03:05:19;;;;;;;39.20;21.70;;;;;;;-2.29;84.04;99679.27;112844;241;38813;-70
2024/01/19 03:07:53;;;;;;;34.10;19.60;;;;;;;-2.27;84.26;99682.69;112855;241;38300;-69
2024/01/19 03:10:27;;;;;;;34.00;19.80;;;;;;;-2.24;84.15;99684.08;112859;241;40012;-69
2024/01/19 03:13:01;;;;;;;40.90;22.60;;;;;;;-2.28;83.86;99688.34;112740;241;175239;-70
2024/01/19 03:15:34;;;;;;;37.20;20.60;;;;;;;-2.30;84.06;99688.52;112867;241;39508;-71
2024/01/19 03:18:08;;;;;;;34.00;18.50;;;;;;;-2.29;84.19;99691.59;112747;241;175271;-69
2024/01/19 03:20:42;;;;;;;34.70;19.60;;;;;;;-2.27;84.19;99700.82;112849;241;38557;-69
2024/01/19 03:23:16;;;;;;;31.20;18.30;;;;;;;-2.27;83.70;99707.31;112896;241;39456;-69
2024/01/19 03:25:49;;;;;;;34.10;19.30;;;;;;;-2.29;83.79;99704.90;112869;241;38842;-69
2024/01/19 03:28:23;;;;;;;36.40;20.20;;;;;;;-2.32;83.44;99704.73;112894;241;38390;-70
2024/01/19 03:30:57;;;;;;;33.20;19.70;;;;;;;-2.39;83.30;99709.83;112886;241;38669;-70
2024/01/19 03:33:30;;;;;;;37.60;22.10;;;;;;;-2.42;83.67;99712.88;112851;241;38319;-69
2024/01/19 03:36:04;;;;;;;33.70;19.30;;;;;;;-2.44;83.87;99720.40;112863;241;38542;-69
2024/01/19 03:38:38;;;;;;;32.20;17.90;;;;;;;-2.43;84.04;99733.89;112872;241;39595;-69
2024/01/19 03:41:12;;;;;;;32.10;17.20;;;;;;;-2.45;83.54;99735.08;112871;241;38950;-69
2024/01/19 03:43:46;;;;;;;30.60;17.40;;;;;;;-2.46;83.84;99739.52;112855;241;38838;-69
2024/01/19 03:46:20;;;;;;;34.50;18.60;;;;;;;-2.41;84.14;99748.77;112864;241;38401;-69
2024/01/19 03:48:54;;;;;;;32.70;19.20;;;;;;;-2.36;84.18;99753.58;112855;241;38812;-70
2024/01/19 03:51:28;;;;;;;36.70;20.80;;;;;;;-2.36;83.88;99760.75;112882;241;38838;-70
2024/01/19 03:54:01;;;;;;;36.00;19.90;;;;;;;-2.33;84.22;99765.71;112840;241;38324;-69
2024/01/19 03:56:35;;;;;;;37.90;21.30;;;;;;;-2.27;84.16;99773.23;112896;241;38729;-69
2024/01/19 03:59:09;;;;;;;41.00;21.50;;;;;;;-2.30;83.86;99779.23;112873;241;39435;-69
2024/01/19 04:01:42;;;;;;;43.10;22.80;;;;;;;-2.30;84.13;99782.98;112856;241;38713;-69
2024/01/19 04:04:16;;;;;;;33.80;19.80;;;;;;;-2.27;83.83;99788.27;112866;241;38461;-70
2024/01/19 04:06:52;;;;;;;38.10;20.60;;;;;;;-2.30;83.40;99788.27;112927;241;38683;-69
2024/01/19 04:09:26;;;;;;;36.70;21.20;;;;;;;-2.34;83.03;99792.17;112835;241;39612;-69
2024/01/19 04:11:59;;;;;;;34.90;20.40;;;;;;;-2.39;82.75;99796.76;112878;241;38539;-70
2024/01/19 04:14:33;;;;;;;33.40;19.60;;;;;;;-2.43;82.86;99805.45;112865;241;38506;-70
2024/01/19 04:17:07;;;;;;;33.90;19.40;;;;;;;-2.49;82.46;99812.43;112884;241;39028;-70
2024/01/19 04:19:41;;;;;;;35.30;19.90;;;;;;;-2.54;82.85;99820.42;112878;241;39451;-70
2024/01/19 04:22:15;;;;;;;36.30;20.50;;;;;;;-2.54;82.99;99828.96;112894;241;38689;-70
2024/01/19 04:24:48;;;;;;;32.20;17.80;;;;;;;-2.54;83.09;99834.60;112895;241;38329;-70
2024/01/19 04:27:22;;;;;;;31.20;16.70;;;;;;;-2.53;83.22;99840.75;112960;240;38227;-70
2024/01/19 04:29:56;;;;;;;29.30;17.20;;;;;;;-2.50;83.33;99850.67;112951;240;39743;-70
2024/01/19 04:32:29;;;;;;;26.10;16.10;;;;;;;-2.45;83.52;99855.49;112966;240;38685;-70
2024/01/19 04:35:04;;;;;;;26.20;15.80;;;;;;;-2.43;83.59;99861.47;112925;240;38421;-70
2024/01/19 04:37:38;;;;;;;29.00;17.20;;;;;;;-2.40;83.50;99870.21;112898;240;39480;-69
2024/01/19 04:40:13;;;;;;;26.70;16.90;;;;;;;-2.44;83.08;99868.81;112948;240;38451;-69
2024/01/19 04:42:46;;;;;;;27.40;17.10;;;;;;;-2.47;82.91;99876.31;112992;240;38438;-69
2024/01/19 04:45:23;;;;;;;29.80;16.60;;;;;;;-2.51;82.95;99872.36;112930;240;39777;-69
2024/01/19 04:47:57;;;;;;;23.80;14.80;;;;;;;-2.53;82.84;99866.36;112962;240;38621;-69
2024/01/19 04:50:30;;;;;;;24.50;15.60;;;;;;;-2.54;82.63;99868.23;112972;240;39789;-69
2024/01/19 04:53:04;;;;;;;26.10;15.50;;;;;;;-2.55;83.08;99867.55;112852;240;172728;-70
2024/01/19 04:55:38;;;;;;;25.10;15.10;;;;;;;-2.52;83.07;99866.02;112943;240;40253;-70
2024/01/19 04:58:11;;;;;;;23.70;14.70;;;;;;;-2.50;83.04;99873.73;112855;240;175298;-70
2024/01/19 05:00:46;;;;;;;26.20;16.30;;;;;;;-2.48;83.26;99875.45;112965;240;40197;-70
2024/01/19 05:03:19;;;;;;;23.40;13.50;;;;;;;-2.48;83.03;99885.69;112972;240;38514;-70
2024/01/19 05:05:53;;;;;;;25.80;15.20;;;;;;;-2.51;82.90;99890.61;112666;240;375635;-71
2024/01/19 05:08:27;;;;;;;20.50;12.10;;;;;;;-2.51;83.08;99890.45;112979;240;38418;-69
2024/01/19 05:11:01;;;;;;;18.30;12.20;;;;;;;-2.47;82.95;99892.52;112950;240;38350;-69
2024/01/19 05:13:35;;;;;;;21.80;13.00;;;;;;;-2.44;83.03;99896.31;112963;240;38345;-70
2024/01/19 05:16:09;;;;;;;19.20;12.80;;;;;;;-2.40;83.03;99899.58;112955;240;38361;-70
2024/01/19 05:18:43;;;;;;;21.90;12.60;;;;;;;-2.38;82.76;99896.70;112944;240;39640;-69
2024/01/19 05:21:17;;;;;;;21.90;12.70;;;;;;;-2.44;82.34;99895.27;112838;240;175392;-69
2024/01/19 05:23:51;;;;;;;21.80;13.50;;;;;;;-2.50;82.43;99897.82;112993;240;38900;-70
2024/01/19 05:26:27;;;;;;;24.60;12.20;;;;;;;-2.52;82.22;99907.17;112958;240;38317;-70
2024/01/19 05:29:01;;;;;;;21.50;12.60;;;;;;;-2.52;82.15;99913.33;112954;240;38259;-69
2024/01/19 05:31:34;;;;;;;24.00;13.70;;;;;;;-2.52;82.23;99905.47;113018;240;37955;-70
2024/01/19 05:34:08;;;;;;;22.40;13.20;;;;;;;-2.49;82.10;99903.79;113007;240;38571;-71
2024/01/19 05:36:42;;;;;;;25.00;14.70;;;;;;;-2.48;82.03;99905.67;112250;240;914756;-69
2024/01/19 05:39:15;;;;;;;25.20;14.40;;;;;;;-2.53;81.57;99902.40;112971;240;39354;-69
2024/01/19 05:41:48;;;;;;;25.50;14.80;;;;;;;-2.57;81.59;99908.49;112915;240;38324;-69
2024/01/19 05:44:22;;;;;;;28.20;15.50;;;;;;;-2.59;81.57;99917.02;112927;240;38349;-69
2024/01/19 05:46:55;;;;;;;27.50;16.30;;;;;;;-2.67;81.35;99926.20;112911;240;38386;-70
2024/01/19 05:49:29;;;;;;;27.00;15.10;;;;;;;-2.70;81.65;99927.55;112918;240;39005;-70
2024/01/19 05:52:03;;;;;;;28.50;15.40;;;;;;;-2.68;81.79;99930.27;112942;240;38302;-70
2024/01/19 05:54:38;;;;;;;29.20;16.60;;;;;;;-2.65;82.01;99930.49;112920;240;39434;-70
2024/01/19 05:57:12;;;;;;;29.90;16.50;;;;;;;-2.63;82.08;99933.40;112904;240;38923;-69
2024/01/19 05:59:46;;;;;;;31.30;16.70;;;;;;;-2.63;81.91;99940.39;112897;240;39539;-69
2024/01/19 06:02:21;;;;;;;33.40;18.20;;;;;;;-2.65;81.85;99938.86;112864;240;38489;-69
2024/01/19 06:04:55;;;;;;;30.10;16.70;;;;;;;-2.69;81.69;99946.33;112859;240;38618;-69
2024/01/19 06:07:30;;;;;;;28.80;15.00;;;;;;;-2.71;81.87;99952.80;112898;240;39456;-68
2024/01/19 06:10:04;;;;;;;26.90;14.30;;;;;;;-2.68;81.98;99951.63;112864;241;38296;-68
2024/01/19 06:12:38;;;;;;;24.40;14.60;;;;;;;-2.65;81.85;99955.92;112915;240;38548;-70
2024/01/19 06:15:12;;;;;;;23.10;13.10;;;;;;;-2.62;81.79;99964.99;112907;240;38713;-70
2024/01/19 06:17:46;;;;;;;23.80;13.30;;;;;;;-2.62;81.56;99963.79;112921;240;38438;-69
2024/01/19 06:20:20;;;;;;;21.10;13.30;;;;;;;-2.63;81.65;99969.08;112892;241;38755;-69
2024/01/19 06:22:54;;;;;;;22.20;13.30;;;;;;;-2.65;81.25;99973.68;112898;240;38328;-70
2024/01/19 06:25:28;;;;;;;22.60;13.10;;;;;;;-2.71;80.75;99969.02;112912;241;38668;-70
2024/01/19 06:28:02;;;;;;;20.40;12.70;;;;;;;-2.78;80.83;99967.93;112868;240;38347;-70
2024/01/19 06:30:36;;;;;;;20.90;11.90;;;;;;;-2.85;80.67;99969.90;112994;240;39682;-70
2024/01/19 06:33:10;;;;;;;17.50;11.40;;;;;;;-2.92;80.48;99974.62;113010;240;38989;-69
2024/01/19 06:35:43;;;;;;;19.40;12.30;;;;;;;-3.00;80.23;99973.85;113002;240;39483;-69
2024/01/19 06:38:17;;;;;;;19.10;12.00;;;;;;;-3.09;80.22;99978.54;113040;241;38359;-69
2024/01/19 06:40:51;;;;;;;20.30;13.20;;;;;;;-3.15;80.23;99980.34;113049;241;38327;-68
2024/01/19 06:43:25;;;;;;;20.80;12.90;;;;;;;-3.21;80.50;99981.98;113049;240;38302;-70
2024/01/19 06:45:58;;;;;;;22.00;12.70;;;;;;;-3.32;80.26;99983.39;113068;241;39612;-70
2024/01/19 06:48:32;;;;;;;21.40;13.70;;;;;;;-3.45;80.17;99992.96;113044;241;38776;-69
2024/01/19 06:51:06;;;;;;;21.60;12.60;;;;;;;-3.54;80.53;99992.33;113002;240;38487;-69
2024/01/19 06:53:40;;;;;;;21.40;12.60;;;;;;;-3.62;80.38;99989.50;113018;240;38283;-69
2024/01/19 06:56:13;;;;;;;19.20;11.20;;;;;;;-3.69;80.36;99989.23;113010;241;38431;-69
2024/01/19 06:58:47;;;;;;;17.70;12.10;;;;;;;-3.77;80.21;99987.09;113036;240;38563;-69
2024/01/19 07:01:22;;;;;;;19.10;11.80;;;;;;;-3.84;80.26;99995.16;113034;240;38310;-69
2024/01/19 07:03:57;;;;;;;20.50;12.70;;;;;;;-3.90;80.37;100001.38;113013;240;38520;-70
2024/01/19 07:06:33;;;;;;;21.90;12.90;;;;;;;-3.94;80.59;100004.92;112991;240;39061;-70
2024/01/19 07:09:08;;;;;;;20.30;12.40;;;;;;;-3.98;80.78;100003.16;113020;241;40008;-70
2024/01/19 07:11:41;;;;;;;24.00;14.20;;;;;;;-4.02;80.77;100003.26;113025;241;40054;-70
2024/01/19 07:14:15;;;;;;;22.80;13.30;;;;;;;-4.08;80.84;100006.40;113010;241;39649;-70
2024/01/19 07:16:49;;;;;;;18.50;11.30;;;;;;;-4.09;81.15;100010.46;113023;240;39505;-70
2024/01/19 07:19:22;;;;;;;18.60;12.00;;;;;;;-4.07;81.43;100009.15;113036;240;38297;-70
2024/01/19 07:21:56;;;;;;;19.70;12.30;;;;;;;-4.04;81.48;100012.43;113046;241;39155;-69
2024/01/19 07:24:32;;;;;;;21.40;13.00;;;;;;;-4.00;81.60;100012.49;113047;241;39235;-68
2024/01/19 07:27:06;;;;;;;18.80;12.40;;;;;;;-3.95;81.67;100017.15;113000;240;38347;-68
2024/01/19 07:29:40;;;;;;;21.70;13.00;;;;;;;-3.90;82.02;100016.37;113062;240;38971;-68
2024/01/19 07:32:14;;;;;;;21.20;13.20;;;;;;;-3.85;81.89;100015.59;113052;240;38280;-69
2024/01/19 07:34:48;;;;;;;20.90;12.70;;;;;;;-3.83;82.17;100014.27;113042;240;38388;-69
2024/01/19 07:37:22;;;;;;;22.40;14.10;;;;;;;-3.79;82.39;100027.10;113012;241;38461;-69
2024/01/19 07:39:56;;;;;;;17.50;12.00;;;;;;;-3.74;82.13;100024.79;113016;241;38641;-69
2024/01/19 07:42:30;;;;;;;19.10;11.50;;;;;;;-3.66;82.00;100028.99;113015;241;38612;-69
2024/01/19 07:45:04;;;;;;;21.30;13.40;;;;;;;-3.59;81.83;100027.90;113014;240;38528;-69
2024/01/19 07:47:38;;;;;;;20.40;14.30;;;;;;;-3.54;81.77;100027.28;113018;240;39034;-69
2024/01/19 07:50:12;;;;;;;26.10;15.00;;;;;;;-3.46;81.76;100032.50;113038;240;38535;-70
2024/01/19 07:52:43;;;;;;;24.60;13.70;;;;;;;-3.40;81.72;100031.04;113033;241;38641;-69
2024/01/19 07:55:17;;;;;;;23.50;15.10;;;;;;;-3.36;81.72;100030.93;112851;240;38419;-69
2024/01/19 07:57:51;;;;;;;24.50;15.40;;;;;;;-3.30;81.72;100029.48;112857;241;39197;-69
2024/01/19 08:00:26;;;;;;;23.90;15.20;;;;;;;-3.25;81.82;100031.23;112903;241;38267;-68
2024/01/19 08:03:00;;;;;;;27.20;15.70;;;;;;;-3.19;81.79;100030.63;112887;241;38352;-69
2024/01/19 08:05:34;;;;;;;24.20;14.10;;;;;;;-3.11;81.61;100029.52;112906;241;39091;-70
2024/01/19 08:08:10;;;;;;;23.00;13.50;;;;;;;-3.00;81.56;100026.75;113028;241;38287;-69
2024/01/19 08:10:44;;;;;;;25.30;14.80;;;;;;;-2.85;81.47;100025.89;112896;241;38259;-70
2024/01/19 08:13:20;;;;;;;28.40;15.30;;;;;;;-2.70;81.72;100026.23;112893;241;38606;-69
2024/01/19 08:15:54;;;;;;;24.50;14.90;;;;;;;-2.53;81.56;100020.73;112898;241;38740;-70
2024/01/19 08:18:33;;;;;;;26.20;14.80;;;;;;;-2.40;81.27;100019.84;112884;241;38927;-69
2024/01/19 08:21:07;;;;;;;26.80;15.90;;;;;;;-2.32;80.74;100014.61;112880;241;39281;-69
2024/01/19 08:23:41;;;;;;;24.60;16.30;;;;;;;-2.25;80.73;100013.80;112902;241;38381;-69
2024/01/19 08:26:15;;;;;;;29.60;16.70;;;;;;;-2.18;80.60;100010.45;112881;241;38382;-69
2024/01/19 08:28:50;;;;;;;29.20;17.20;;;;;;;-2.13;80.24;100013.05;112873;241;38879;-69
2024/01/19 08:31:24;;;;;;;27.40;17.40;;;;;;;-2.10;80.21;100013.77;112843;241;39620;-69
2024/01/19 08:33:59;;;;;;;27.90;17.00;;;;;;;-2.08;80.16;100014.80;112857;241;38954;-69
2024/01/19 08:36:33;;;;;;;30.00;17.50;;;;;;;-2.02;79.52;100011.92;112924;241;38716;-69
2024/01/19 08:39:09;;;;;;;28.50;17.60;;;;;;;-1.97;79.30;100010.09;112847;241;38681;-70
2024/01/19 08:41:47;;;;;;;28.30;17.40;;;;;;;-1.88;79.62;100008.79;112884;241;38884;-71
2024/01/19 08:44:22;;;;;;;27.60;17.30;;;;;;;-1.79;79.48;100012.09;112891;241;38860;-69
2024/01/19 08:46:57;;;;;;;33.10;18.40;;;;;;;-1.77;79.09;100010.91;112871;241;38920;-69
2024/01/19 08:49:30;;;;;;;28.90;18.40;;;;;;;-1.70;79.25;100015.39;112866;241;40243;-69
2024/01/19 08:52:05;;;;;;;30.40;19.50;;;;;;;-1.70;78.47;100020.52;112865;241;38607;-69
2024/01/19 08:54:38;;;;;;;32.20;19.10;;;;;;;-1.66;78.17;100022.77;112895;241;39273;-69
2024/01/19 08:57:12;;;;;;;30.10;17.60;;;;;;;-1.66;78.23;100024.32;112910;241;38319;-69
2024/01/19 08:59:46;;;;;;;30.50;19.10;;;;;;;-1.65;77.92;100029.10;112866;241;38279;-71
2024/01/19 09:02:21;;;;;;;32.40;18.40;;;;;;;-1.63;77.81;100032.17;112884;241;38702;-71
2024/01/19 09:04:55;;;;;;;32.20;18.90;;;;;;;-1.64;77.47;100031.67;112903;241;39993;-70
2024/01/19 09:07:28;;;;;;;33.60;18.80;;;;;;;-1.66;77.63;100030.81;112928;241;38564;-69
2024/01/19 09:10:02;;;;;;;26.30;16.10;;;;;;;-1.59;77.94;100037.34;112872;241;38653;-69
2024/01/19 09:12:36;;;;;;;30.80;18.40;;;;;;;-1.48;78.14;100036.89;112890;241;38429;-70
2024/01/19 09:15:11;;;;;;;32.60;18.70;;;;;;;-1.30;77.38;100040.05;112910;241;38408;-70
2024/01/19 09:17:47;;;;;;;33.70;18.10;;;;;;;-1.11;77.02;100038.61;112861;241;39756;-70
2024/01/19 09:20:21;;;;;;;34.70;18.80;;;;;;;-0.87;77.28;100040.75;112860;241;39461;-69
2024/01/19 09:22:55;;;;;;;28.80;18.10;;;;;;;-0.61;76.81;100040.98;112887;241;39047;-71
2024/01/19 09:25:28;;;;;;;30.70;18.70;;;;;;;-0.39;76.71;100041.36;112828;241;38939;-71
2024/01/19 09:28:02;;;;;;;32.30;18.60;;;;;;;-0.19;76.26;100044.80;112895;241;38304;-72
2024/01/19 09:30:36;;;;;;;28.70;17.70;;;;;;;-0.03;74.11;100041.71;112895;241;38046;-73
2024/01/19 09:33:10;;;;;;;27.20;18.60;;;;;;;0.08;74.99;100041.55;112896;241;38767;-71
2024/01/19 09:35:43;;;;;;;31.50;19.30;;;;;;;0.36;75.21;100041.33;112876;241;38316;-71
2024/01/19 09:38:17;;;;;;;31.40;18.60;;;;;;;0.73;74.71;100045.70;112860;241;40133;-71
2024/01/19 09:40:51;;;;;;;27.80;17.80;;;;;;;1.06;74.37;100043.34;112747;241;174953;-70
2024/01/19 09:43:25;;;;;;;28.10;17.80;;;;;;;1.46;73.69;100045.52;112889;241;38284;-72
2024/01/19 09:45:59;;;;;;;29.60;19.80;;;;;;;1.78;72.13;100048.91;112888;241;40447;-70
2024/01/19 09:48:35;;;;;;;26.90;17.90;;;;;;;2.13;72.11;100051.38;112864;241;39713;-72
2024/01/19 09:51:09;;;;;;;27.10;18.20;;;;;;;2.56;70.22;100054.58;112883;241;38278;-72
2024/01/19 09:53:51;;;;;;;26.00;17.50;;;;;;;2.95;69.76;100061.23;112882;241;38453;-72
2024/01/19 09:56:27;;;;;;;24.70;16.70;;;;;;;3.22;68.41;100062.94;112849;241;39376;-72
2024/01/19 09:59:01;;;;;;;28.30;17.70;;;;;;;3.48;67.75;100068.45;112901;241;40467;-70
2024/01/19 10:01:36;;;;;;;26.60;17.30;;;;;;;3.59;65.82;100069.16;112662;241;41772;-71
2024/01/19 10:04:15;;;;;;;28.80;18.40;;;;;;;3.50;65.56;100071.71;112901;241;40293;-69
2024/01/19 10:06:51;;;;;;;28.50;18.00;;;;;;;3.30;64.92;100075.42;112883;241;38754;-69
2024/01/19 10:09:25;;;;;;;25.50;17.10;;;;;;;3.10;64.92;100078.95;112925;241;38254;-70
2024/01/19 10:11:59;;;;;;;27.10;17.60;;;;;;;3.14;65.92;100080.97;112914;241;39989;-71
2024/01/19 10:14:36;;;;;;;28.00;17.30;;;;;;;3.28;65.08;100079.42;112885;241;38645;-70
2024/01/19 10:17:14;;;;;;;26.80;17.50;;;;;;;3.14;65.00;100084.59;112899;241;39423;-71
2024/01/19 10:19:52;;;;;;;28.30;18.00;;;;;;;3.21;65.35;100081.92;112884;241;39336;-71
2024/01/19 10:22:32;;;;;;;24.30;17.20;;;;;;;3.40;65.48;100077.70;112907;241;38458;-70
2024/01/19 10:25:08;;;;;;;27.30;16.90;;;;;;;3.60;64.77;100076.91;112781;241;174848;-71
2024/01/19 10:27:44;;;;;;;25.40;17.30;;;;;;;3.87;64.57;100072.17;112890;241;39034;-70
2024/01/19 10:30:20;;;;;;;25.10;17.00;;;;;;;4.07;63.97;100069.27;112867;241;38520;-71
2024/01/19 10:33:03;;;;;;;26.30;16.70;;;;;;;4.11;62.90;100068.70;112861;241;38713;-70
2024/01/19 10:35:39;;;;;;;28.70;18.20;;;;;;;3.96;62.52;100066.70;112913;241;38224;-72
2024/01/19 10:38:15;;;;;;;;;;;;;;;3.72;61.94;100068.27;112929;241;39038;-69
2024/01/19 10:40:49;;;;;;;30.10;19.20;;;;;;;3.44;61.85;100068.85;112890;241;39720;-70
2024/01/19 10:43:27;;;;;;;31.50;18.70;;;;;;;3.20;62.71;100074.86;112903;241;38314;-69
2024/01/19 10:46:01;;;;;;;36.80;20.60;;;;;;;2.96;62.37;100069.30;112854;241;38592;-69
2024/01/19 10:48:35;;;;;;;35.00;19.60;;;;;;;2.66;62.15;100073.60;112877;241;38904;-70
2024/01/19 10:51:09;;;;;;;34.90;20.40;;;;;;;2.42;63.33;100076.59;112866;241;38578;-69
2024/01/19 10:53:43;;;;;;;33.10;19.60;;;;;;;2.21;63.76;100069.74;112902;241;38832;-69
2024/01/19 10:56:23;;;;;;;36.20;21.60;;;;;;;2.03;64.21;100070.05;112776;241;175088;-69
2024/01/19 10:58:57;;;;;;;35.50;21.00;;;;;;;1.87;64.49;100067.43;112821;241;41325;-69
2024/01/19 11:01:31;;;;;;;37.40;21.40;;;;;;;1.66;64.50;100073.94;112902;241;38913;-69
2024/01/19 11:04:05;;;;;;;35.40;20.50;;;;;;;1.50;65.14;100071.28;112873;241;39498;-69
2024/01/19 11:06:39;;;;;;;36.80;20.80;;;;;;;1.40;65.72;100072.20;112910;241;39746;-69
2024/01/19 11:09:13;;;;;;;38.70;23.70;;;;;;;1.31;66.07;100074.14;112848;241;39833;-68
2024/01/19 11:11:54;;;;;;;39.80;22.00;;;;;;;1.23;66.36;100076.58;112896;241;38645;-68
2024/01/19 11:14:30;;;;;;;35.30;21.50;;;;;;;1.16;66.69;100081.77;112892;241;38584;-69
2024/01/19 11:17:04;;;;;;;35.60;21.20;;;;;;;1.10;66.90;100082.99;112837;241;39869;-68
2024/01/19 11:19:38;;;;;;;39.60;21.80;;;;;;;1.03;66.86;100085.61;112864;241;38283;-69
2024/01/19 11:22:12;;;;;;;39.70;21.40;;;;;;;0.96;67.23;100082.19;112896;241;38266;-70
2024/01/19 11:24:46;;;;;;;38.60;22.10;;;;;;;0.93;67.56;100084.95;112870;241;38384;-68
2024/01/19 11:27:25;;;;;;;40.90;21.90;;;;;;;0.91;67.71;100088.91;112872;241;39235;-68
2024/01/19 11:30:09;;;;;;;;;;;;;;;0.88;67.99;100086.34;112856;241;39890;-70
2024/01/19 11:32:42;;;;;;;44.70;22.60;;;;;;;0.83;68.05;100083.77;112873;241;38514;-69
2024/01/19 11:35:26;;;;;;;40.20;23.70;;;;;;;0.83;68.39;100083.27;112881;241;39006;-69
2024/01/19 11:38:00;;;;;;;40.30;23.90;;;;;;;0.85;68.54;100087.39;112882;241;38572;-69
2024/01/19 11:40:48;;;;;;;40.60;24.40;;;;;;;0.85;68.62;100090.83;112902;241;38330;-70
2024/01/19 11:43:42;;;;;;;47.00;24.90;;;;;;;0.84;68.87;100090.66;112883;241;38409;-70
2024/01/19 11:46:16;;;;;;;40.70;23.20;;;;;;;0.86;69.00;100094.08;112885;241;38567;-70
2024/01/19 11:48:50;;;;;;;44.20;25.40;;;;;;;0.86;68.99;100091.33;112890;241;38242;-69
2024/01/19 11:51:43;;;;;;;43.10;24.80;;;;;;;0.86;68.75;100089.95;112961;241;39574;-69